FW4750 Weather Reports


Display with metric or nautical units.
time (UTC)temp
F
wind
direction
speed
MPH
gust
MPH
rain 1hr
in
rain 24hr
in
rain mn
in
humidity
%
barometer
mb
20200407230506 80 70 0.0 9.0 0.00 0.00 0.00 26 1012.7
20200407225001 81 122 4.0 10.0 0.00 0.00 0.00 25 1013.0
20200407223459 82 114 4.0 10.0 0.00 0.00 0.00 25 1013.2
20200407222001 83 347 4.0 11.0 0.00 0.00 0.00 24 1013.3
20200407220456 83 92 3.0 8.0 0.00 0.00 0.00 24 1013.7
20200407214955 84 118 2.0 8.0 0.00 0.00 0.00 24 1013.9
20200407213452 83 65 3.0 8.0 0.00 0.00 0.00 23 1014.3
20200407211952 83 199 3.0 12.0 0.00 0.00 0.00 24 1014.4
20200407210448 82 73 4.0 11.0 0.00 0.00 0.00 22 1014.7
20200407204948 82 41 4.0 11.0 0.00 0.00 0.00 21 1015.2
20200407203449 83 97 3.0 9.0 0.00 0.00 0.00 21 1015.5
20200407201946 81 5 3.0 10.0 0.00 0.00 0.00 20 1015.6
20200407200445 82 48 1.0 9.0 0.00 0.00 0.00 23 1016.0
20200407194945 80 103 3.0 11.0 0.00 0.00 0.00 21 1016.1
20200407193444 81 58 2.0 10.0 0.00 0.00 0.00 21 1016.4
20200407191939 80 75 3.0 9.0 0.00 0.00 0.00 21 1016.6
20200407190438 80 115 2.0 10.0 0.00 0.00 0.00 24 1016.8
20200407184937 79 80 3.0 10.0 0.00 0.00 0.00 24 1016.9
20200407183435 78 110 5.0 10.0 0.00 0.00 0.00 25 1017.1
20200407181933 78 88 3.0 9.0 0.00 0.00 0.00 26 1017.2
20200407180433 78 90 3.0 9.0 0.00 0.00 0.00 27 1017.4
20200407174932 78 359 2.0 6.0 0.00 0.00 0.00 25 1017.5
20200407173431 76 192 3.0 7.0 0.00 0.00 0.00 25 1017.5
20200407171930 75 222 1.0 5.0 0.00 0.00 0.00 28 1017.7
20200407170428 75 9 1.0 5.0 0.00 0.00 0.00 28 1017.7
20200407164928 75 81 1.0 4.0 0.00 0.00 0.00 27 1017.5
20200407163423 74 79 1.0 4.0 0.00 0.00 0.00 27 1017.6
20200407161923 72 270 0.0 3.0 0.00 0.00 0.00 29 1017.6
20200407160416 70 111 0.0 4.0 0.00 0.00 0.00 32 1017.6
20200407154917 68 325 1.0 3.0 0.00 0.00 0.00 31 1017.5
20200407153414 67 283 1.0 5.0 0.00 0.00 0.00 34 1017.3
20200407151913 65 321 1.0 5.0 0.00 0.00 0.00 36 1017.2
20200407150412 63 304 1.0 4.0 0.00 0.00 0.00 37 1017.1
20200407144913 62 281 1.0 3.0 0.00 0.00 0.00 37 1016.9
20200407143412 61 311 0.0 3.0 0.00 0.00 0.00 38 1016.9
20200407141911 60 309 1.0 3.0 0.00 0.00 0.00 39 1016.7
20200407140411 58 182 0.0 1.0 0.00 0.00 0.00 43 1016.6
20200407134912 58 212 0.0 1.0 0.00 0.00 0.00 42 1016.4
20200407133409 57 192 0.0 3.0 0.00 0.00 0.00 43 1016.3
20200407131908 56 302 1.0 3.0 0.00 0.00 0.00 44 1016.0
20200407130406 56 306 0.0 2.0 0.00 0.00 0.00 44 1016.0
20200407124905 54 180 0.0 1.0 0.00 0.00 0.00 47 1015.9
20200407123405 55 180 0.0 1.0 0.00 0.00 0.00 46 1015.9
20200407121906 55 191 0.0 1.0 0.00 0.00 0.00 46 1015.8
20200407120404 57 307 0.0 4.0 0.00 0.00 0.00 45 1015.6
20200407114904 58 295 1.0 5.0 0.00 0.00 0.00 41 1015.5
20200407113404 55 199 0.0 2.0 0.00 0.00 0.00 49 1015.6
20200407111904 54 289 0.0 0.0 0.00 0.00 0.00 55 1015.6
20200407110402 55 306 0.0 1.0 0.00 0.00 0.00 54 1015.6
20200407104902 55 120 0.0 1.0 0.00 0.00 0.00 54 1015.6
20200407103401 55 299 0.0 0.0 0.00 0.00 0.00 54 1015.8
20200407101900 56 299 0.0 1.0 0.00 0.00 0.00 52 1015.8
20200407100401 55 287 0.0 1.0 0.00 0.00 0.00 51 1015.9
20200407094856 53 266 0.0 0.0 0.00 0.00 0.00 57 1015.9
20200407093401 53 266 0.0 0.0 0.00 0.00 0.00 60 1015.9
20200407091850 53 266 0.0 0.0 0.00 0.00 0.00 60 1016.1
20200407090350 54 265 0.0 0.0 0.00 0.00 0.00 60 1016.0
20200407084845 54 265 0.0 0.0 0.00 0.00 0.00 59 1016.1
20200407083343 55 265 0.0 0.0 0.00 0.00 0.00 57 1016.1
20200407081836 55 265 0.0 0.0 0.00 0.00 0.00 56 1016.0
20200407080335 56 266 0.0 0.0 0.00 0.00 0.00 54 1015.9
20200407074833 56 265 0.0 0.0 0.00 0.00 0.00 53 1015.8
20200407073332 57 265 0.0 0.0 0.00 0.00 0.00 50 1015.8
20200407071832 58 265 0.0 0.0 0.00 0.00 0.00 48 1015.8
20200407070329 59 265 0.0 0.0 0.00 0.00 0.00 45 1015.8
20200407064830 60 265 0.0 0.0 0.00 0.00 0.00 43 1015.5
20200407063328 61 265 0.0 0.0 0.00 0.00 0.00 37 1015.4
20200407061826 63 265 0.0 1.0 0.00 0.00 0.00 36 1015.2
20200407060327 64 266 0.0 1.0 0.00 0.00 0.00 34 1015.1
20200407054825 64 226 0.0 1.0 0.00 0.00 0.00 34 1015.0
20200407053322 64 108 0.0 1.0 0.00 0.00 0.00 34 1014.8
20200407051824 65 211 0.0 1.0 0.00 0.00 0.00 34 1014.7
20200407050321 65 99 0.0 1.0 0.00 0.00 0.00 32 1014.7
20200407044819 65 75 0.0 1.0 0.00 0.00 0.00 32 1014.5
20200407043317 66 231 0.0 1.0 0.00 0.00 0.00 33 1014.3
20200407041815 66 223 0.0 2.0 0.00 0.00 0.00 34 1014.0
20200407040314 67 228 0.0 1.0 0.00 0.00 0.00 33 1013.9
20200407034813 68 239 0.0 1.0 0.00 0.00 0.00 33 1013.5
20200407033308 69 221 0.0 3.0 0.00 0.00 0.00 32 1013.3
20200407031811 70 278 0.0 3.0 0.00 0.00 0.00 31 1013.1
20200407030308 71 222 0.0 3.0 0.00 0.00 0.00 29 1012.7
20200407024808 72 223 0.0 3.0 0.00 0.00 0.00 29 1012.4
20200407023309 72 242 1.0 6.0 0.00 0.00 0.00 29 1012.2
20200407021806 73 226 0.0 6.0 0.00 0.00 0.00 29 1011.9
20200407020306 74 222 1.0 7.0 0.00 0.00 0.00 29 1011.6
20200407014804 75 233 1.0 9.0 0.00 0.00 0.00 27 1011.5
20200407013301 75 295 2.0 6.0 0.00 0.00 0.00 26 1011.4
20200407011803 76 222 1.0 8.0 0.00 0.00 0.00 25 1011.3
20200407010304 76 181 2.0 8.0 0.00 0.00 0.00 25 1011.1
20200407004803 77 222 3.0 10.0 0.00 0.00 0.00 24 1011.0
20200407003301 77 11 2.0 11.0 0.00 0.00 0.00 22 1010.9
20200407001803 78 228 2.0 10.0 0.00 0.00 0.00 23 1010.6
20200407000305 78 217 1.0 6.0 0.00 0.00 0.00 21 1010.6
20200406234801 78 229 2.0 11.0 0.00 0.00 0.00 21 1010.5
20200406233301 78 229 2.0 8.0 0.00 0.00 0.00 20 1010.5
20200406231801 79 225 2.0 12.0 0.00 0.00 0.00 20 1010.5